CheckWX is a tool to help pilots better visualize weather data.  It is not intended as a substitute for an official pre-flight weather briefing.

14:41:56 UTC

KBWI METAR
Baltimore / Washington International Thurgood Marshall Airport
Baltimore, Maryland, USA
Current

48 mins ago

KBWI 201354Z 23007KT 10SM FEW110 FEW160 SCT250 28/18 A2987 RMK AO2 SLP113 T02780183
Observed
May-20 @ 13:54 UTC
Wind
  • 230° at 7 KTS
Visibility
10 SM
Flight Rules
VFR
Cloud Levels
  • Few at 11,000' AGL
  • Few at 16,000' AGL
  • Scattered at 25,000' AGL
Temperature
28°C / 82°F
Dewpoint
18°C / 64°F
Heat Index
29°C / 84°F
Humidity
55%
Altimeter
29.87" Hg
Pressure
1011.52 hPa
Previous

2 hours ago

KBWI 201254Z 24009KT 10SM FEW110 FEW160 SCT250 26/19 A2988 RMK AO2 SLP117 T02610189 $
Observed
May-20 @ 12:54 UTC
Wind
  • 240° at 9 KTS
Visibility
10 SM
Flight Rules
VFR
Cloud Levels
  • Few at 11,000' AGL
  • Few at 16,000' AGL
  • Scattered at 25,000' AGL
Temperature
26°C / 79°F
Dewpoint
19°C / 66°F
Humidity
65%
Altimeter
29.88" Hg
Pressure
1011.82 hPa
Previous

3 hours ago

KBWI 201154Z 23009KT 10SM FEW110 FEW160 SCT250 25/18 A2988 RMK AO2 SLP118 T02500178 10256 20233 51009
Observed
May-20 @ 11:54 UTC
Wind
  • 230° at 9 KTS
Visibility
10 SM
Flight Rules
VFR
Cloud Levels
  • Few at 11,000' AGL
  • Few at 16,000' AGL
  • Scattered at 25,000' AGL
Temperature
25°C / 77°F
Dewpoint
18°C / 64°F
Humidity
65%
Altimeter
29.88" Hg
Pressure
1011.82 hPa